createdAt,value
2023-03-23T15:58:56.728Z,99427.67
2023-03-23T16:01:29.378Z,99429.81
2023-03-23T16:04:06.911Z,99433.06
2023-03-23T16:06:36.941Z,99430.86
2023-03-23T16:09:08.062Z,99438.02
2023-03-23T16:11:38.115Z,99442.59
2023-03-23T16:14:07.482Z,99439.90
2023-03-23T16:16:40.998Z,99435.84
2023-03-23T16:19:12.941Z,99438.31
2023-03-23T16:21:43.073Z,99441.81
2023-03-23T16:24:12.633Z,99436.14
2023-03-23T16:26:42.065Z,99438.54
2023-03-23T16:29:28.978Z,99439.22
2023-03-23T16:32:07.046Z,99447.65
2023-03-23T16:34:39.404Z,99451.63
2023-03-23T16:37:12.549Z,99445.63
2023-03-23T16:39:42.116Z,99439.35
2023-03-23T16:42:12.255Z,99446.58
2023-03-23T16:44:42.562Z,99446.23
2023-03-23T16:47:12.092Z,99453.15
2023-03-23T16:49:41.235Z,99457.29
2023-03-23T16:52:10.117Z,99461.11
2023-03-23T16:54:38.708Z,99459.83
2023-03-23T16:57:08.032Z,99457.33
2023-03-23T16:59:36.900Z,99458.77
2023-03-23T17:02:05.467Z,99462.52
2023-03-23T17:04:34.677Z,99465.64
2023-03-23T17:07:04.695Z,99466.13
2023-03-23T17:09:34.404Z,99470.59
2023-03-23T17:12:03.269Z,99477.09
2023-03-23T17:14:32.124Z,99476.82
2023-03-23T17:17:00.908Z,99476.66
2023-03-23T17:19:31.303Z,99477.90
2023-03-23T17:22:00.316Z,99470.69
2023-03-23T17:24:30.477Z,99468.91
2023-03-23T17:26:59.142Z,99474.76
2023-03-23T17:29:27.771Z,99476.98
2023-03-23T17:31:56.592Z,99476.75
2023-03-23T17:34:25.561Z,99475.70
2023-03-23T17:36:54.169Z,99479.38
2023-03-23T17:39:22.640Z,99481.13
2023-03-23T17:41:51.429Z,99480.09
2023-03-23T17:44:20.734Z,99480.54
2023-03-23T17:46:50.770Z,99486.73
2023-03-23T17:49:20.780Z,99488.27
2023-03-23T17:51:51.267Z,99488.60
2023-03-23T17:54:20.914Z,99496.17
2023-03-23T17:56:50.366Z,99498.19
2023-03-23T17:59:23.722Z,99502.35
2023-03-23T18:01:53.779Z,99505.42
2023-03-23T18:04:22.912Z,99509.13
2023-03-23T18:06:53.346Z,99508.71
2023-03-23T18:09:22.550Z,99516.56
2023-03-23T18:11:52.210Z,99517.62
2023-03-23T18:14:23.662Z,99505.81
2023-03-23T18:16:55.550Z,99500.56
2023-03-23T18:19:26.832Z,99501.38
2023-03-23T18:21:56.280Z,99504.20
2023-03-23T18:24:29.228Z,99504.55
2023-03-23T18:27:00.794Z,99504.80
2023-03-23T18:29:30.188Z,99511.77
2023-03-23T18:31:59.931Z,99515.61
2023-03-23T18:34:32.022Z,99523.10
2023-03-23T18:37:03.310Z,99522.29
2023-03-23T18:39:40.104Z,99529.95
2023-03-23T18:42:10.385Z,99528.73
2023-03-23T18:44:39.268Z,99534.15
2023-03-23T18:47:08.463Z,99540.56
2023-03-23T18:49:37.252Z,99542.46
2023-03-23T18:52:06.439Z,99539.10
2023-03-23T18:54:35.339Z,99542.86
2023-03-23T18:57:04.932Z,99550.80
2023-03-23T18:59:34.888Z,99553.92
2023-03-23T19:02:04.970Z,99552.00
2023-03-23T19:04:34.740Z,99552.13
2023-03-23T19:07:03.693Z,99544.41
2023-03-23T19:09:35.359Z,99540.03
2023-03-23T19:12:04.140Z,99535.66
2023-03-23T19:14:35.285Z,99528.99
2023-03-23T19:17:04.173Z,99524.05
2023-03-23T19:19:34.188Z,99527.89
2023-03-23T19:22:03.538Z,99529.17
2023-03-23T19:24:33.267Z,99535.84
2023-03-23T19:27:02.193Z,99539.00
2023-03-23T19:29:31.072Z,99546.03
2023-03-23T19:32:00.175Z,99546.23
2023-03-23T19:34:30.881Z,99544.65
2023-03-23T19:37:05.345Z,99548.48
2023-03-23T19:39:36.303Z,99542.89
2023-03-23T19:42:06.610Z,99539.33
2023-03-23T19:44:37.717Z,99538.77
2023-03-23T19:47:07.468Z,99534.71
2023-03-23T19:49:36.640Z,99534.91
2023-03-23T19:52:11.973Z,99532.21
2023-03-23T19:54:43.228Z,99536.60
2023-03-23T19:57:13.113Z,99532.86
2023-03-23T19:59:42.454Z,99532.98
2023-03-23T20:02:12.641Z,99536.59
2023-03-23T20:04:42.131Z,99544.56
2023-03-23T20:07:11.476Z,99551.42
2023-03-23T20:09:40.504Z,99552.22
2023-03-23T20:12:09.677Z,99557.03
2023-03-23T20:14:45.129Z,99560.02
2023-03-23T20:17:14.980Z,99558.67
2023-03-23T20:19:44.575Z,99561.39
2023-03-23T20:22:15.281Z,99565.58
2023-03-23T20:24:48.296Z,99565.50
2023-03-23T20:27:19.199Z,99566.17
2023-03-23T20:29:48.509Z,99567.60
2023-03-23T20:32:17.686Z,99572.54
2023-03-23T20:34:49.554Z,99572.54
2023-03-23T20:37:21.072Z,99577.10
2023-03-23T20:39:50.746Z,99579.02
2023-03-23T20:42:20.228Z,99575.60
2023-03-23T20:44:49.337Z,99577.02
2023-03-23T20:47:18.516Z,99568.92
2023-03-23T20:49:53.153Z,99564.69
2023-03-23T20:52:27.095Z,99566.36
2023-03-23T20:54:56.964Z,99567.44
2023-03-23T20:57:26.055Z,99566.99
2023-03-23T20:59:56.904Z,99566.45
2023-03-23T21:02:30.761Z,99574.27
2023-03-23T21:05:05.762Z,99573.02
2023-03-23T21:07:36.816Z,99569.95
2023-03-23T21:10:07.780Z,99572.24
2023-03-23T21:12:36.942Z,99572.27
2023-03-23T21:15:06.613Z,99572.31
2023-03-23T21:17:36.171Z,99573.98
2023-03-23T21:20:08.335Z,99578.70
2023-03-23T21:22:37.606Z,99578.36
2023-03-23T21:25:07.718Z,99577.52
2023-03-23T21:27:37.314Z,99581.59
2023-03-23T21:30:07.247Z,99582.88
2023-03-23T21:32:36.805Z,99583.67
2023-03-23T21:35:07.181Z,99586.71
2023-03-23T21:37:37.265Z,99592.56
2023-03-23T21:40:13.742Z,99591.39
2023-03-23T21:42:44.998Z,99591.65
2023-03-23T21:45:21.225Z,99591.78
2023-03-23T21:47:57.125Z,99587.44
2023-03-23T21:50:25.914Z,99582.59
2023-03-23T21:52:54.501Z,99581.66
2023-03-23T21:55:23.258Z,99572.62
2023-03-23T21:57:53.198Z,99569.90
2023-03-23T22:00:23.526Z,99573.58
2023-03-23T22:02:53.742Z,99569.11
2023-03-23T22:05:24.392Z,99570.64
2023-03-23T22:07:54.562Z,99567.02
2023-03-23T22:10:23.139Z,99572.73
2023-03-23T22:12:55.420Z,99573.67
2023-03-23T22:15:28.393Z,99569.46
2023-03-23T22:17:58.691Z,99567.66
2023-03-23T22:20:29.610Z,99565.27
2023-03-23T22:22:58.338Z,99569.16
2023-03-23T22:25:27.331Z,99566.27
2023-03-23T22:27:55.938Z,99564.96
2023-03-23T22:30:24.836Z,99560.27
2023-03-23T22:32:53.325Z,99562.51
2023-03-23T22:35:22.282Z,99562.81
2023-03-23T22:37:50.513Z,99565.42
2023-03-23T22:40:19.951Z,99566.55
2023-03-23T22:42:48.353Z,99571.89
2023-03-23T22:45:17.544Z,99573.67
2023-03-23T22:47:46.067Z,99570.48
2023-03-23T22:50:14.931Z,99563.96
2023-03-23T22:52:43.315Z,99569.43
2023-03-23T22:55:11.735Z,99570.94
2023-03-23T22:57:40.053Z,99567.75
2023-03-23T23:00:15.189Z,99561.49
2023-03-23T23:02:44.236Z,99558.85
2023-03-23T23:05:13.854Z,99557.49
2023-03-23T23:07:42.063Z,99554.64
2023-03-23T23:10:10.450Z,99554.80
2023-03-23T23:12:39.551Z,99556.20
2023-03-23T23:15:09.070Z,99555.20
2023-03-23T23:17:39.103Z,99554.30
2023-03-23T23:20:12.971Z,99554.34
2023-03-23T23:22:43.741Z,99553.98
2023-03-23T23:25:13.435Z,99545.42
2023-03-23T23:27:41.686Z,99548.70
2023-03-23T23:30:11.183Z,99546.66
2023-03-23T23:32:39.500Z,99545.48
2023-03-23T23:35:08.051Z,99544.11
2023-03-23T23:37:36.550Z,99541.84
2023-03-23T23:40:10.927Z,99543.16
2023-03-23T23:42:39.350Z,99537.68
2023-03-23T23:45:10.456Z,99540.55
2023-03-23T23:47:39.108Z,99538.09
2023-03-23T23:50:10.481Z,99538.16
2023-03-23T23:52:40.345Z,99530.70
2023-03-23T23:55:10.665Z,99528.66
2023-03-23T23:57:39.258Z,99523.92
